sensor_id;sensor_type;location;lat;lon;timestamp;pressure;altitude;pressure_sealevel;temperature;humidity
70745;BME280;59284;31.390;34.904;2022-09-03T00:00:10;94079.09;;;22.18;100.00
70745;BME280;59284;31.390;34.904;2022-09-03T00:02:46;94085.13;;;22.04;100.00
70745;BME280;59284;31.390;34.904;2022-09-03T00:05:25;94089.28;;;21.91;100.00
70745;BME280;59284;31.390;34.904;2022-09-03T00:11:03;94086.25;;;21.93;100.00
70745;BME280;59284;31.390;34.904;2022-09-03T00:13:58;94077.16;;;21.80;100.00
70745;BME280;59284;31.390;34.904;2022-09-03T00:16:27;94068.88;;;21.99;100.00
70745;BME280;59284;31.390;34.904;2022-09-03T00:19:01;94085.47;;;21.85;100.00
70745;BME280;59284;31.390;34.904;2022-09-03T00:21:46;94087.34;;;21.78;100.00
70745;BME280;59284;31.390;34.904;2022-09-03T00:24:22;94092.28;;;21.90;100.00
70745;BME280;59284;31.390;34.904;2022-09-03T00:26:57;94091.84;;;21.66;100.00
70745;BME280;59284;31.390;34.904;2022-09-03T00:29:40;94104.69;;;21.68;100.00
70745;BME280;59284;31.390;34.904;2022-09-03T00:32:14;94104.31;;;21.66;100.00
70745;BME280;59284;31.390;34.904;2022-09-03T00:34:48;94101.69;;;21.80;100.00
70745;BME280;59284;31.390;34.904;2022-09-03T00:37:15;94101.63;;;21.62;100.00
70745;BME280;59284;31.390;34.904;2022-09-03T00:39:41;94106.91;;;21.55;100.00
70745;BME280;59284;31.390;34.904;2022-09-03T00:42:26;94111.81;;;21.60;100.00
70745;BME280;59284;31.390;34.904;2022-09-03T00:45:06;94117.09;;;21.60;100.00
70745;BME280;59284;31.390;34.904;2022-09-03T00:48:01;94121.25;;;21.54;100.00
70745;BME280;59284;31.390;34.904;2022-09-03T00:53:59;94153.41;;;22.02;100.00
70745;BME280;59284;31.390;34.904;2022-09-03T00:57:15;94152.63;;;21.88;100.00
70745;BME280;59284;31.390;34.904;2022-09-03T00:59:46;94159.00;;;21.80;100.00
70745;BME280;59284;31.390;34.904;2022-09-03T01:02:21;94169.63;;;21.87;100.00
70745;BME280;59284;31.390;34.904;2022-09-03T01:05:08;94168.06;;;21.79;100.00
70745;BME280;59284;31.390;34.904;2022-09-03T01:07:43;94169.56;;;21.73;100.00
70745;BME280;59284;31.390;34.904;2022-09-03T01:10:21;94154.06;;;21.71;100.00
70745;BME280;59284;31.390;34.904;2022-09-03T01:13:00;94148.78;;;21.57;100.00
70745;BME280;59284;31.390;34.904;2022-09-03T01:18:37;94150.63;;;21.49;100.00
70745;BME280;59284;31.390;34.904;2022-09-03T01:24:13;94156.66;;;21.53;100.00
70745;BME280;59284;31.390;34.904;2022-09-03T01:35:45;94149.81;;;21.35;100.00
70745;BME280;59284;31.390;34.904;2022-09-03T01:47:20;94177.38;;;21.44;100.00
70745;BME280;59284;31.390;34.904;2022-09-03T01:50:03;94195.09;;;21.51;100.00
70745;BME280;59284;31.390;34.904;2022-09-03T01:53:11;94202.25;;;21.50;100.00
70745;BME280;59284;31.390;34.904;2022-09-03T01:56:01;94217.31;;;21.43;100.00
70745;BME280;59284;31.390;34.904;2022-09-03T01:58:40;94231.66;;;21.45;100.00
70745;BME280;59284;31.390;34.904;2022-09-03T02:01:22;94224.41;;;21.28;100.00
70745;BME280;59284;31.390;34.904;2022-09-03T02:03:53;94222.13;;;21.23;100.00
70745;BME280;59284;31.390;34.904;2022-09-03T02:06:24;94219.84;;;21.25;100.00
70745;BME280;59284;31.390;34.904;2022-09-03T02:08:50;94221.44;;;21.33;100.00
70745;BME280;59284;31.390;34.904;2022-09-03T02:11:15;94228.19;;;21.27;100.00
70745;BME280;59284;31.390;34.904;2022-09-03T02:13:48;94234.94;;;21.25;100.00
70745;BME280;59284;31.390;34.904;2022-09-03T02:16:18;94229.34;;;21.33;100.00
70745;BME280;59284;31.390;34.904;2022-09-03T02:18:50;94225.97;;;21.36;100.00
70745;BME280;59284;31.390;34.904;2022-09-03T02:21:21;94219.47;;;21.23;100.00
70745;BME280;59284;31.390;34.904;2022-09-03T02:23:48;94222.16;;;21.30;100.00
70745;BME280;59284;31.390;34.904;2022-09-03T02:26:24;94211.97;;;21.29;100.00
70745;BME280;59284;31.390;34.904;2022-09-03T02:28:51;94205.84;;;21.14;100.00
70745;BME280;59284;31.390;34.904;2022-09-03T02:31:17;94211.50;;;21.13;100.00
70745;BME280;59284;31.390;34.904;2022-09-03T02:33:45;94217.16;;;21.11;100.00
70745;BME280;59284;31.390;34.904;2022-09-03T02:36:20;94221.31;;;21.12;100.00
70745;BME280;59284;31.390;34.904;2022-09-03T02:38:52;94232.94;;;21.04;100.00
70745;BME280;59284;31.390;34.904;2022-09-03T02:41:18;94247.28;;;21.10;100.00
70745;BME280;59284;31.390;34.904;2022-09-03T02:43:46;94263.50;;;21.12;100.00
70745;BME280;59284;31.390;34.904;2022-09-03T02:46:20;94330.19;;;21.13;100.00
70745;BME280;59284;31.390;34.904;2022-09-03T02:48:46;94754.06;;;21.09;100.00
70745;BME280;59284;31.390;34.904;2022-09-03T02:51:12;94748.84;;;21.12;100.00
70745;BME280;59284;31.390;34.904;2022-09-03T02:53:38;94753.41;;;21.15;100.00
70745;BME280;59284;31.390;34.904;2022-09-03T02:56:04;94759.22;;;21.02;100.00
70745;BME280;59284;31.390;34.904;2022-09-03T02:58:30;94765.16;;;20.95;100.00
70745;BME280;59284;31.390;34.904;2022-09-03T03:00:56;94761.28;;;20.89;100.00
70745;BME280;59284;31.390;34.904;2022-09-03T03:03:23;94758.22;;;20.87;100.00
70745;BME280;59284;31.390;34.904;2022-09-03T03:05:51;94748.75;;;20.82;100.00
70745;BME280;59284;31.390;34.904;2022-09-03T03:08:18;94734.75;;;20.78;100.00
70745;BME280;59284;31.390;34.904;2022-09-03T03:11:08;94750.47;;;20.71;100.00
70745;BME280;59284;31.390;34.904;2022-09-03T03:13:34;94757.44;;;20.83;100.00
70745;BME280;59284;31.390;34.904;2022-09-03T03:16:02;94767.09;;;20.75;100.00
70745;BME280;59284;31.390;34.904;2022-09-03T03:18:31;94766.38;;;20.78;100.00
70745;BME280;59284;31.390;34.904;2022-09-03T03:20:56;94773.47;;;20.74;100.00
70745;BME280;59284;31.390;34.904;2022-09-03T03:23:22;94767.97;;;20.83;100.00
70745;BME280;59284;31.390;34.904;2022-09-03T03:25:48;94776.97;;;20.82;100.00
70745;BME280;59284;31.390;34.904;2022-09-03T03:28:14;94780.09;;;20.87;100.00
70745;BME280;59284;31.390;34.904;2022-09-03T03:30:40;94780.13;;;20.91;100.00
70745;BME280;59284;31.390;34.904;2022-09-03T03:33:08;94768.50;;;20.92;100.00
70745;BME280;59284;31.390;34.904;2022-09-03T03:35:34;94768.78;;;20.87;100.00
70745;BME280;59284;31.390;34.904;2022-09-03T03:38:00;94769.59;;;20.91;100.00
70745;BME280;59284;31.390;34.904;2022-09-03T03:40:26;94782.59;;;21.03;100.00
70745;BME280;59284;31.390;34.904;2022-09-03T03:42:52;94797.03;;;21.09;100.00
70745;BME280;59284;31.390;34.904;2022-09-03T03:45:19;94807.97;;;21.34;100.00
70745;BME280;59284;31.390;34.904;2022-09-03T03:47:45;94825.25;;;21.31;100.00
70745;BME280;59284;31.390;34.904;2022-09-03T03:50:10;94828.09;;;21.45;100.00
70745;BME280;59284;31.390;34.904;2022-09-03T03:52:36;94845.34;;;21.65;100.00
70745;BME280;59284;31.390;34.904;2022-09-03T03:55:02;94862.88;;;21.77;100.00
70745;BME280;59284;31.390;34.904;2022-09-03T03:57:29;94870.59;;;21.89;100.00
70745;BME280;59284;31.390;34.904;2022-09-03T03:59:57;94887.63;;;21.92;100.00
70745;BME280;59284;31.390;34.904;2022-09-03T04:02:22;94896.34;;;21.96;100.00
70745;BME280;59284;31.390;34.904;2022-09-03T04:04:48;94906.28;;;22.06;100.00
70745;BME280;59284;31.390;34.904;2022-09-03T04:07:14;94910.44;;;22.33;100.00
70745;BME280;59284;31.390;34.904;2022-09-03T04:09:40;94897.91;;;22.30;100.00
70745;BME280;59284;31.390;34.904;2022-09-03T04:12:05;94885.31;;;22.20;100.00
70745;BME280;59284;31.390;34.904;2022-09-03T04:14:33;94875.41;;;22.10;100.00
70745;BME280;59284;31.390;34.904;2022-09-03T04:17:00;94870.25;;;22.20;100.00
70745;BME280;59284;31.390;34.904;2022-09-03T04:19:27;94854.91;;;22.33;100.00
70745;BME280;59284;31.390;34.904;2022-09-03T04:21:54;94839.91;;;22.11;100.00
70745;BME280;59284;31.390;34.904;2022-09-03T04:24:23;94829.28;;;22.04;100.00
70745;BME280;59284;31.390;34.904;2022-09-03T04:26:48;94824.16;;;22.18;100.00
70745;BME280;59284;31.390;34.904;2022-09-03T04:29:14;94810.69;;;22.30;100.00
70745;BME280;59284;31.390;34.904;2022-09-03T04:31:46;94793.94;;;22.52;100.00
70745;BME280;59284;31.390;34.904;2022-09-03T04:34:30;94763.28;;;22.44;100.00
70745;BME280;59284;31.390;34.904;2022-09-03T04:36:56;94747.09;;;22.53;100.00
70745;BME280;59284;31.390;34.904;2022-09-03T04:39:23;94712.50;;;22.65;100.00
70745;BME280;59284;31.390;34.904;2022-09-03T04:41:50;94690.28;;;22.76;100.00
70745;BME280;59284;31.390;34.904;2022-09-03T04:44:15;94678.06;;;22.61;100.00
70745;BME280;59284;31.390;34.904;2022-09-03T04:46:41;94668.78;;;22.81;100.00
70745;BME280;59284;31.390;34.904;2022-09-03T04:49:06;94643.63;;;23.12;100.00
70745;BME280;59284;31.390;34.904;2022-09-03T04:51:33;94590.69;;;23.05;100.00
70745;BME280;59284;31.390;34.904;2022-09-03T04:54:02;94559.78;;;23.27;100.00
70745;BME280;59284;31.390;34.904;2022-09-03T04:56:32;94501.84;;;23.00;100.00
70745;BME280;59284;31.390;34.904;2022-09-03T04:59:01;94444.88;;;23.38;100.00
70745;BME280;59284;31.390;34.904;2022-09-03T05:01:29;94395.34;;;23.39;100.00
70745;BME280;59284;31.390;34.904;2022-09-03T05:03:59;94401.38;;;23.36;100.00
70745;BME280;59284;31.390;34.904;2022-09-03T05:06:26;94397.56;;;23.30;100.00
70745;BME280;59284;31.390;34.904;2022-09-03T05:08:53;94369.97;;;23.27;100.00
70745;BME280;59284;31.390;34.904;2022-09-03T05:11:20;94368.50;;;23.37;100.00
70745;BME280;59284;31.390;34.904;2022-09-03T05:13:47;94320.34;;;23.81;100.00
70745;BME280;59284;31.390;34.904;2022-09-03T05:16:26;94285.94;;;23.77;100.00
70745;BME280;59284;31.390;34.904;2022-09-03T05:19:00;94279.06;;;23.90;100.00
70745;BME280;59284;31.390;34.904;2022-09-03T05:21:26;94252.63;;;23.87;100.00
70745;BME280;59284;31.390;34.904;2022-09-03T05:23:53;94193.78;;;24.23;100.00
70745;BME280;59284;31.390;34.904;2022-09-03T05:26:23;93727.31;;;24.23;100.00
70745;BME280;59284;31.390;34.904;2022-09-03T05:28:53;93703.59;;;24.39;100.00
70745;BME280;59284;31.390;34.904;2022-09-03T05:31:21;93705.34;;;24.50;100.00
70745;BME280;59284;31.390;34.904;2022-09-03T05:33:49;93699.97;;;24.53;100.00
70745;BME280;59284;31.390;34.904;2022-09-03T05:36:17;93702.06;;;24.65;100.00
70745;BME280;59284;31.390;34.904;2022-09-03T05:38:44;93716.03;;;24.69;100.00
70745;BME280;59284;31.390;34.904;2022-09-03T05:41:11;93712.97;;;24.71;100.00
70745;BME280;59284;31.390;34.904;2022-09-03T05:43:38;93732.78;;;24.63;100.00
70745;BME280;59284;31.390;34.904;2022-09-03T05:46:06;93711.09;;;24.94;100.00
70745;BME280;59284;31.390;34.904;2022-09-03T05:48:35;93709.88;;;24.99;100.00
70745;BME280;59284;31.390;34.904;2022-09-03T05:51:03;93715.88;;;25.03;100.00
70745;BME280;59284;31.390;34.904;2022-09-03T05:53:31;93716.94;;;25.29;100.00
70745;BME280;59284;31.390;34.904;2022-09-03T05:56:03;93722.84;;;24.70;100.00
70745;BME280;59284;31.390;34.904;2022-09-03T05:58:39;93731.09;;;24.99;100.00
70745;BME280;59284;31.390;34.904;2022-09-03T06:03:43;93727.34;;;25.62;100.00
70745;BME280;59284;31.390;34.904;2022-09-03T06:06:10;93745.94;;;25.62;100.00
70745;BME280;59284;31.390;34.904;2022-09-03T06:08:38;93751.72;;;25.57;100.00
70745;BME280;59284;31.390;34.904;2022-09-03T06:11:12;93754.31;;;25.81;100.00
70745;BME280;59284;31.390;34.904;2022-09-03T06:13:40;93702.66;;;25.82;100.00
70745;BME280;59284;31.390;34.904;2022-09-03T06:16:10;93714.28;;;26.27;100.00
70745;BME280;59284;31.390;34.904;2022-09-03T06:18:36;93739.38;;;25.87;100.00
70745;BME280;59284;31.390;34.904;2022-09-03T06:21:05;93729.69;;;26.16;100.00
70745;BME280;59284;31.390;34.904;2022-09-03T06:23:34;93752.56;;;26.29;100.00
70745;BME280;59284;31.390;34.904;2022-09-03T06:26:04;93759.06;;;26.28;100.00
70745;BME280;59284;31.390;34.904;2022-09-03T06:28:31;93765.06;;;25.93;100.00
70745;BME280;59284;31.390;34.904;2022-09-03T06:30:59;93766.63;;;25.91;100.00
70745;BME280;59284;31.390;34.904;2022-09-03T06:33:27;93790.59;;;26.07;100.00
70745;BME280;59284;31.390;34.904;2022-09-03T06:36:06;93806.31;;;26.21;100.00
70745;BME280;59284;31.390;34.904;2022-09-03T06:38:33;93818.28;;;26.09;100.00
70745;BME280;59284;31.390;34.904;2022-09-03T06:41:08;93813.16;;;26.74;100.00
70745;BME280;59284;31.390;34.904;2022-09-03T06:43:39;93835.50;;;26.60;100.00
70745;BME280;59284;31.390;34.904;2022-09-03T06:46:10;93881.34;;;27.03;100.00
70745;BME280;59284;31.390;34.904;2022-09-03T06:48:37;93903.09;;;27.99;100.00
70745;BME280;59284;31.390;34.904;2022-09-03T06:51:15;94094.47;;;28.23;100.00
70745;BME280;59284;31.390;34.904;2022-09-03T06:53:47;94578.59;;;27.85;100.00
70745;BME280;59284;31.390;34.904;2022-09-03T06:56:18;94786.59;;;26.96;100.00
70745;BME280;59284;31.390;34.904;2022-09-03T06:58:46;94820.34;;;27.58;100.00
70745;BME280;59284;31.390;34.904;2022-09-03T07:01:26;94850.53;;;27.85;100.00
70745;BME280;59284;31.390;34.904;2022-09-03T07:03:54;94852.25;;;27.65;100.00
70745;BME280;59284;31.390;34.904;2022-09-03T07:06:22;94854.00;;;28.16;100.00
70745;BME280;59284;31.390;34.904;2022-09-03T07:08:47;94853.69;;;28.44;100.00
70745;BME280;59284;31.390;34.904;2022-09-03T07:11:19;94830.13;;;28.96;100.00
70745;BME280;59284;31.390;34.904;2022-09-03T07:13:48;94841.81;;;28.79;100.00
70745;BME280;59284;31.390;34.904;2022-09-03T07:16:16;94828.66;;;28.91;100.00
70745;BME280;59284;31.390;34.904;2022-09-03T07:18:43;94835.78;;;28.75;100.00
70745;BME280;59284;31.390;34.904;2022-09-03T07:21:12;94827.69;;;28.78;100.00
70745;BME280;59284;31.390;34.904;2022-09-03T07:23:39;94840.22;;;28.24;100.00
70745;BME280;59284;31.390;34.904;2022-09-03T07:26:08;94842.50;;;29.09;100.00
70745;BME280;59284;31.390;34.904;2022-09-03T07:28:36;94836.56;;;29.25;100.00
70745;BME280;59284;31.390;34.904;2022-09-03T07:33:32;94844.56;;;28.72;100.00
70745;BME280;59284;31.390;34.904;2022-09-03T07:36:04;94842.75;;;28.92;100.00
70745;BME280;59284;31.390;34.904;2022-09-03T07:38:34;94820.59;;;29.22;100.00
70745;BME280;59284;31.390;34.904;2022-09-03T07:41:02;94821.56;;;29.31;100.00
70745;BME280;59284;31.390;34.904;2022-09-03T07:43:32;94811.63;;;28.82;100.00
70745;BME280;59284;31.390;34.904;2022-09-03T07:45:58;94806.34;;;29.51;100.00
70745;BME280;59284;31.390;34.904;2022-09-03T07:48:26;94819.31;;;30.15;100.00
70745;BME280;59284;31.390;34.904;2022-09-03T07:50:56;94827.97;;;30.42;100.00
70745;BME280;59284;31.390;34.904;2022-09-03T07:53:24;94820.75;;;29.80;100.00
70745;BME280;59284;31.390;34.904;2022-09-03T07:55:49;94822.88;;;30.09;100.00
70745;BME280;59284;31.390;34.904;2022-09-03T07:58:16;94817.59;;;29.62;100.00
70745;BME280;59284;31.390;34.904;2022-09-03T08:00:42;94819.31;;;29.53;100.00
70745;BME280;59284;31.390;34.904;2022-09-03T08:03:08;94808.03;;;29.18;100.00
70745;BME280;59284;31.390;34.904;2022-09-03T08:05:35;94811.91;;;30.03;100.00
70745;BME280;59284;31.390;34.904;2022-09-03T08:08:04;94825.28;;;30.42;100.00
70745;BME280;59284;31.390;34.904;2022-09-03T08:10:35;94798.53;;;29.83;100.00
70745;BME280;59284;31.390;34.904;2022-09-03T08:13:00;94796.88;;;30.09;100.00
70745;BME280;59284;31.390;34.904;2022-09-03T08:15:30;94815.44;;;30.55;100.00
70745;BME280;59284;31.390;34.904;2022-09-03T08:17:56;94826.56;;;31.38;100.00
70745;BME280;59284;31.390;34.904;2022-09-03T08:20:21;94802.16;;;30.13;100.00
70745;BME280;59284;31.390;34.904;2022-09-03T08:22:47;94802.44;;;29.99;100.00
70745;BME280;59284;31.390;34.904;2022-09-03T08:25:13;94801.63;;;30.41;100.00
70745;BME280;59284;31.390;34.904;2022-09-03T08:27:39;94812.94;;;30.65;100.00
70745;BME280;59284;31.390;34.904;2022-09-03T08:30:07;94809.00;;;30.69;100.00
70745;BME280;59284;31.390;34.904;2022-09-03T08:32:37;94790.31;;;30.14;100.00
70745;BME280;59284;31.390;34.904;2022-09-03T08:35:05;94800.16;;;30.72;100.00
70745;BME280;59284;31.390;34.904;2022-09-03T08:37:31;94805.72;;;31.13;100.00
70745;BME280;59284;31.390;34.904;2022-09-03T08:39:57;94798.34;;;30.49;100.00
70745;BME280;59284;31.390;34.904;2022-09-03T08:42:35;94813.31;;;30.83;100.00
70745;BME280;59284;31.390;34.904;2022-09-03T08:45:06;94805.22;;;31.18;100.00
70745;BME280;59284;31.390;34.904;2022-09-03T08:47:42;94823.31;;;31.63;100.00
70745;BME280;59284;31.390;34.904;2022-09-03T08:50:24;94806.09;;;30.80;100.00
70745;BME280;59284;31.390;34.904;2022-09-03T08:52:56;94799.56;;;32.06;100.00
70745;BME280;59284;31.390;34.904;2022-09-03T09:03:46;94790.16;;;32.27;100.00
70745;BME280;59284;31.390;34.904;2022-09-03T09:06:32;94791.06;;;32.62;100.00
70745;BME280;59284;31.390;34.904;2022-09-03T09:09:16;94802.66;;;32.84;100.00
70745;BME280;59284;31.390;34.904;2022-09-03T09:14:42;94800.88;;;33.06;100.00
70745;BME280;59284;31.390;34.904;2022-09-03T09:22:43;94781.19;;;31.76;100.00
70745;BME280;59284;31.390;34.904;2022-09-03T09:25:15;94786.50;;;32.33;100.00
70745;BME280;59284;31.390;34.904;2022-09-03T09:28:00;94788.22;;;32.40;100.00
70745;BME280;59284;31.390;34.904;2022-09-03T09:30:28;94797.06;;;33.29;100.00
70745;BME280;59284;31.390;34.904;2022-09-03T09:32:59;94796.84;;;32.98;100.00
70745;BME280;59284;31.390;34.904;2022-09-03T09:35:25;94813.69;;;34.48;100.00
70745;BME280;59284;31.390;34.904;2022-09-03T09:37:54;94807.91;;;33.72;100.00
70745;BME280;59284;31.390;34.904;2022-09-03T09:40:30;94816.75;;;34.90;100.00
70745;BME280;59284;31.390;34.904;2022-09-03T09:43:26;94809.00;;;33.74;100.00
70745;BME280;59284;31.390;34.904;2022-09-03T09:45:52;94813.44;;;34.03;100.00
70745;BME280;59284;31.390;34.904;2022-09-03T09:48:32;94827.19;;;34.79;100.00
70745;BME280;59284;31.390;34.904;2022-09-03T09:51:11;94832.66;;;35.46;100.00
70745;BME280;59284;31.390;34.904;2022-09-03T09:53:38;94830.28;;;35.57;100.00
70745;BME280;59284;31.390;34.904;2022-09-03T09:56:04;94833.72;;;35.57;100.00
70745;BME280;59284;31.390;34.904;2022-09-03T09:58:32;94822.84;;;34.29;100.00
70745;BME280;59284;31.390;34.904;2022-09-03T10:01:17;94829.03;;;35.40;100.00
70745;BME280;59284;31.390;34.904;2022-09-03T10:03:55;94822.72;;;34.54;100.00
70745;BME280;59284;31.390;34.904;2022-09-03T10:06:29;94821.91;;;34.75;100.00
70745;BME280;59284;31.390;34.904;2022-09-03T10:09:19;94826.09;;;35.83;100.00
70745;BME280;59284;31.390;34.904;2022-09-03T10:14:27;94819.72;;;35.22;100.00
70745;BME280;59284;31.390;34.904;2022-09-03T10:17:26;94825.03;;;36.35;100.00
70745;BME280;59284;31.390;34.904;2022-09-03T10:20:06;94825.13;;;38.19;100.00
70745;BME280;59284;31.390;34.904;2022-09-03T10:23:19;94831.94;;;35.90;100.00
70745;BME280;59284;31.390;34.904;2022-09-03T10:28:25;94826.81;;;36.89;100.00
70745;BME280;59284;31.390;34.904;2022-09-03T10:34:21;94819.06;;;36.91;100.00
70745;BME280;59284;31.390;34.904;2022-09-03T10:39:22;94815.38;;;37.03;100.00
70745;BME280;59284;31.390;34.904;2022-09-03T10:47:39;94799.69;;;35.69;100.00
70745;BME280;59284;31.390;34.904;2022-09-03T10:50:29;94792.34;;;34.93;100.00
70745;BME280;59284;31.390;34.904;2022-09-03T11:07:06;94806.09;;;38.72;100.00
70745;BME280;59284;31.390;34.904;2022-09-03T11:09:43;94806.47;;;38.50;100.00
70745;BME280;59284;31.390;34.904;2022-09-03T11:18:43;94785.50;;;38.07;100.00
70745;BME280;59284;31.390;34.904;2022-09-03T11:21:12;94781.06;;;37.80;100.00
70745;BME280;59284;31.390;34.904;2022-09-03T11:23:45;94796.19;;;39.38;100.00
70745;BME280;59284;31.390;34.904;2022-09-03T11:26:16;94792.09;;;40.34;100.00
70745;BME280;59284;31.390;34.904;2022-09-03T11:29:06;94804.44;;;41.29;100.00
70745;BME280;59284;31.390;34.904;2022-09-03T11:31:56;94797.06;;;41.41;100.00
70745;BME280;59284;31.390;34.904;2022-09-03T11:34:59;94790.34;;;39.60;100.00
70745;BME280;59284;31.390;34.904;2022-09-03T11:37:29;94786.81;;;40.82;100.00
70745;BME280;59284;31.390;34.904;2022-09-03T11:40:03;94781.19;;;43.25;100.00
70745;BME280;59284;31.390;34.904;2022-09-03T11:42:30;94781.34;;;39.34;100.00
70745;BME280;59284;31.390;34.904;2022-09-03T11:47:51;94775.91;;;41.72;100.00
70745;BME280;59284;31.390;34.904;2022-09-03T11:50:51;94775.84;;;44.18;100.00
70745;BME280;59284;31.390;34.904;2022-09-03T11:55:59;94765.34;;;41.96;100.00
70745;BME280;59284;31.390;34.904;2022-09-03T12:00:58;94760.13;;;40.24;100.00
70745;BME280;59284;31.390;34.904;2022-09-03T12:18:32;94741.19;;;41.03;100.00
70745;BME280;59284;31.390;34.904;2022-09-03T12:21:08;94740.63;;;42.50;100.00
70745;BME280;59284;31.390;34.904;2022-09-03T12:23:50;94740.81;;;42.85;100.00
70745;BME280;59284;31.390;34.904;2022-09-03T12:26:25;94731.72;;;39.33;100.00
70745;BME280;59284;31.390;34.904;2022-09-03T12:28:58;94731.00;;;40.92;100.00
70745;BME280;59284;31.390;34.904;2022-09-03T12:32:26;94730.66;;;40.17;100.00
70745;BME280;59284;31.390;34.904;2022-09-03T12:37:43;94729.88;;;39.04;100.00
70745;BME280;59284;31.390;34.904;2022-09-03T12:40:46;94726.06;;;39.77;100.00
70745;BME280;59284;31.390;34.904;2022-09-03T12:43:29;94722.56;;;39.30;100.00
70745;BME280;59284;31.390;34.904;2022-09-03T12:46:12;94721.72;;;40.11;100.00
70745;BME280;59284;31.390;34.904;2022-09-03T12:49:01;94724.53;;;40.22;100.00
70745;BME280;59284;31.390;34.904;2022-09-03T12:52:04;94715.41;;;38.73;100.00
70745;BME280;59284;31.390;34.904;2022-09-03T12:54:29;94723.97;;;40.12;100.00
70745;BME280;59284;31.390;34.904;2022-09-03T12:57:03;94722.94;;;40.72;100.00
70745;BME280;59284;31.390;34.904;2022-09-03T12:59:53;94741.88;;;41.40;100.00
70745;BME280;59284;31.390;34.904;2022-09-03T13:02:27;94723.69;;;38.20;100.00
70745;BME280;59284;31.390;34.904;2022-09-03T13:04:55;94722.59;;;39.76;100.00
70745;BME280;59284;31.390;34.904;2022-09-03T13:07:35;94716.63;;;37.69;100.00
70745;BME280;59284;31.390;34.904;2022-09-03T13:13:02;94712.44;;;37.83;100.00
70745;BME280;59284;31.390;34.904;2022-09-03T13:15:35;94730.66;;;39.91;100.00
70745;BME280;59284;31.390;34.904;2022-09-03T13:30:16;94712.81;;;37.14;100.00
70745;BME280;59284;31.390;34.904;2022-09-03T13:32:50;94716.03;;;37.89;100.00
70745;BME280;59284;31.390;34.904;2022-09-03T13:44:05;94701.13;;;37.70;100.00
70745;BME280;59284;31.390;34.904;2022-09-03T13:49:38;94708.69;;;37.04;100.00
70745;BME280;59284;31.390;34.904;2022-09-03T13:55:40;94696.94;;;36.83;100.00
70745;BME280;59284;31.390;34.904;2022-09-03T13:58:43;94698.19;;;35.71;100.00
70745;BME280;59284;31.390;34.904;2022-09-03T14:04:01;94704.19;;;35.48;100.00
70745;BME280;59284;31.390;34.904;2022-09-03T14:07:02;94703.31;;;36.71;100.00
70745;BME280;59284;31.390;34.904;2022-09-03T14:09:46;94699.56;;;36.27;100.00
70745;BME280;59284;31.390;34.904;2022-09-03T14:12:24;94700.53;;;35.96;100.00
70745;BME280;59284;31.390;34.904;2022-09-03T14:15:02;94695.91;;;35.88;100.00
70745;BME280;59284;31.390;34.904;2022-09-03T14:17:55;94702.59;;;36.20;100.00
70745;BME280;59284;31.390;34.904;2022-09-03T14:20:27;94704.56;;;36.19;100.00
70745;BME280;59284;31.390;34.904;2022-09-03T14:23:22;94684.97;;;34.12;100.00
70745;BME280;59284;31.390;34.904;2022-09-03T14:25:58;94696.22;;;34.50;100.00
70745;BME280;59284;31.390;34.904;2022-09-03T14:28:39;94691.09;;;34.04;100.00
70745;BME280;59284;31.390;34.904;2022-09-03T14:31:40;94682.66;;;34.02;100.00
70745;BME280;59284;31.390;34.904;2022-09-03T14:37:36;94671.50;;;33.38;100.00
70745;BME280;59284;31.390;34.904;2022-09-03T14:40:39;94662.09;;;31.86;100.00
70745;BME280;59284;31.390;34.904;2022-09-03T14:46:26;94664.56;;;33.28;100.00
70745;BME280;59284;31.390;34.904;2022-09-03T15:00:17;94581.09;;;29.67;100.00
70745;BME280;59284;31.390;34.904;2022-09-03T15:06:06;94581.09;;;30.51;100.00
70745;BME280;59284;31.390;34.904;2022-09-03T15:08:47;94548.72;;;29.45;100.00
70745;BME280;59284;31.390;34.904;2022-09-03T15:11:23;94517.94;;;29.21;100.00
70745;BME280;59284;31.390;34.904;2022-09-03T15:14:13;94465.78;;;28.34;100.00
70745;BME280;59284;31.390;34.904;2022-09-03T15:30:56;94156.16;;;27.11;100.00
70745;BME280;59284;31.390;34.904;2022-09-03T15:36:20;94050.53;;;26.85;100.00
70745;BME280;59284;31.390;34.904;2022-09-03T15:44:18;93964.25;;;25.54;100.00
70745;BME280;59284;31.390;34.904;2022-09-03T15:49:34;93936.16;;;25.26;100.00
70745;BME280;59284;31.390;34.904;2022-09-03T15:52:29;93843.66;;;25.01;100.00
70745;BME280;59284;31.390;34.904;2022-09-03T15:55:07;93812.78;;;25.11;100.00
70745;BME280;59284;31.390;34.904;2022-09-03T16:00:15;93782.25;;;24.73;100.00
70745;BME280;59284;31.390;34.904;2022-09-03T16:08:06;93718.75;;;24.66;100.00
70745;BME280;59284;31.390;34.904;2022-09-03T16:13:31;93620.84;;;24.28;100.00
70745;BME280;59284;31.390;34.904;2022-09-03T16:16:03;93619.09;;;24.18;100.00
70745;BME280;59284;31.390;34.904;2022-09-03T16:18:34;93614.25;;;24.13;100.00
70745;BME280;59284;31.390;34.904;2022-09-03T16:26:33;93598.94;;;24.24;100.00
70745;BME280;59284;31.390;34.904;2022-09-03T16:29:11;93600.56;;;24.18;100.00
70745;BME280;59284;31.390;34.904;2022-09-03T16:40:11;93573.41;;;24.11;100.00
70745;BME280;59284;31.390;34.904;2022-09-03T16:51:25;93567.03;;;23.82;100.00
70745;BME280;59284;31.390;34.904;2022-09-03T16:54:25;93560.56;;;24.09;100.00
70745;BME280;59284;31.390;34.904;2022-09-03T17:05:25;93575.72;;;23.55;100.00
70745;BME280;59284;31.390;34.904;2022-09-03T17:08:04;93581.81;;;23.79;100.00